sensor_id;sensor_type;location;lat;lon;timestamp;pressure;altitude;pressure_sealevel;temperature;humidity
55757;BME280;41676;44.610;44.078;2023-05-12T00:00:40;101001.06;;;12.15;83.78
55757;BME280;41676;44.610;44.078;2023-05-12T00:05:41;101004.06;;;12.12;84.04
55757;BME280;41676;44.610;44.078;2023-05-12T00:10:42;100992.53;;;12.03;84.53
55757;BME280;41676;44.610;44.078;2023-05-12T00:15:43;100979.16;;;11.87;83.83
55757;BME280;41676;44.610;44.078;2023-05-12T00:20:44;101007.47;;;11.96;83.98
55757;BME280;41676;44.610;44.078;2023-05-12T00:25:45;100995.50;;;11.92;83.96
55757;BME280;41676;44.610;44.078;2023-05-12T00:30:46;101001.06;;;11.81;84.23
55757;BME280;41676;44.610;44.078;2023-05-12T00:35:47;101011.88;;;11.79;83.93
55757;BME280;41676;44.610;44.078;2023-05-12T00:40:47;101025.34;;;11.78;83.61
55757;BME280;41676;44.610;44.078;2023-05-12T00:45:48;101028.69;;;11.80;83.70
55757;BME280;41676;44.610;44.078;2023-05-12T00:50:49;101026.50;;;11.75;84.34
55757;BME280;41676;44.610;44.078;2023-05-12T00:55:50;100997.50;;;11.64;84.50
55757;BME280;41676;44.610;44.078;2023-05-12T01:00:51;101019.13;;;11.69;84.13
55757;BME280;41676;44.610;44.078;2023-05-12T01:10:52;101013.44;;;11.56;84.59
55757;BME280;41676;44.610;44.078;2023-05-12T01:15:55;100921.72;;;10.82;84.61
55757;BME280;41676;44.610;44.078;2023-05-12T01:20:56;100934.75;;;10.93;85.30
55757;BME280;41676;44.610;44.078;2023-05-12T01:26:07;101025.72;;;11.49;86.55
55757;BME280;41676;44.610;44.078;2023-05-12T01:31:08;100948.66;;;10.87;85.54
55757;BME280;41676;44.610;44.078;2023-05-12T01:36:09;100976.16;;;10.95;85.31
55757;BME280;41676;44.610;44.078;2023-05-12T01:41:10;100948.91;;;10.76;85.76
55757;BME280;41676;44.610;44.078;2023-05-12T01:46:10;100985.06;;;10.86;86.17
55757;BME280;41676;44.610;44.078;2023-05-12T01:51:11;100987.56;;;10.70;87.11
55757;BME280;41676;44.610;44.078;2023-05-12T01:56:12;101005.25;;;10.79;87.49
55757;BME280;41676;44.610;44.078;2023-05-12T02:01:13;101001.13;;;10.85;87.26
55757;BME280;41676;44.610;44.078;2023-05-12T02:06:15;100999.00;;;10.88;87.84
55757;BME280;41676;44.610;44.078;2023-05-12T02:11:16;100990.28;;;10.78;87.64
55757;BME280;41676;44.610;44.078;2023-05-12T02:16:17;100990.69;;;10.65;87.90
55757;BME280;41676;44.610;44.078;2023-05-12T02:21:18;100985.91;;;10.69;88.20
55757;BME280;41676;44.610;44.078;2023-05-12T02:26:19;101010.63;;;10.87;88.45
55757;BME280;41676;44.610;44.078;2023-05-12T02:31:20;100922.25;;;10.41;87.97
55757;BME280;41676;44.610;44.078;2023-05-12T02:36:21;100986.00;;;10.85;88.30
55757;BME280;41676;44.610;44.078;2023-05-12T02:41:22;101024.81;;;11.14;88.04
55757;BME280;41676;44.610;44.078;2023-05-12T02:46:22;101009.75;;;11.23;87.92
55757;BME280;41676;44.610;44.078;2023-05-12T02:51:23;101020.66;;;11.46;87.28
55757;BME280;41676;44.610;44.078;2023-05-12T02:56:24;100960.41;;;11.28;86.66
55757;BME280;41676;44.610;44.078;2023-05-12T03:01:25;101014.69;;;11.78;85.99
55757;BME280;41676;44.610;44.078;2023-05-12T03:06:26;101016.47;;;11.95;85.45
55757;BME280;41676;44.610;44.078;2023-05-12T03:11:26;100937.19;;;12.64;83.02
55757;BME280;41676;44.610;44.078;2023-05-12T03:16:27;101004.94;;;13.52;81.84
55757;BME280;41676;44.610;44.078;2023-05-12T03:21:28;100991.50;;;14.93;78.50
55757;BME280;41676;44.610;44.078;2023-05-12T03:26:29;100994.94;;;16.05;75.00
55757;BME280;41676;44.610;44.078;2023-05-12T03:31:30;100976.06;;;17.21;70.83
55757;BME280;41676;44.610;44.078;2023-05-12T03:36:30;100943.97;;;17.89;67.77
55757;BME280;41676;44.610;44.078;2023-05-12T03:41:31;101018.50;;;19.23;63.80
55757;BME280;41676;44.610;44.078;2023-05-12T03:46:32;100952.44;;;19.27;60.86
55757;BME280;41676;44.610;44.078;2023-05-12T03:51:33;101024.16;;;20.44;59.73
55757;BME280;41676;44.610;44.078;2023-05-12T03:56:34;101028.91;;;20.49;57.60
55757;BME280;41676;44.610;44.078;2023-05-12T04:01:35;101025.34;;;20.10;56.79
55757;BME280;41676;44.610;44.078;2023-05-12T04:06:35;101035.22;;;19.84;57.02
55757;BME280;41676;44.610;44.078;2023-05-12T04:11:36;101033.38;;;19.78;55.79
55757;BME280;41676;44.610;44.078;2023-05-12T04:16:37;101004.50;;;19.86;55.20
55757;BME280;41676;44.610;44.078;2023-05-12T04:21:39;101026.88;;;20.44;53.83
55757;BME280;41676;44.610;44.078;2023-05-12T04:26:40;100958.88;;;20.29;53.75
55757;BME280;41676;44.610;44.078;2023-05-12T04:31:41;100964.97;;;20.18;53.11
55757;BME280;41676;44.610;44.078;2023-05-12T04:36:42;100999.69;;;20.39;52.21
55757;BME280;41676;44.610;44.078;2023-05-12T04:41:42;101012.72;;;20.56;50.81
55757;BME280;41676;44.610;44.078;2023-05-12T04:46:43;101022.84;;;20.15;50.64
55757;BME280;41676;44.610;44.078;2023-05-12T04:51:44;100958.41;;;19.35;50.55
55757;BME280;41676;44.610;44.078;2023-05-12T04:56:45;101016.19;;;19.53;49.75
55757;BME280;41676;44.610;44.078;2023-05-12T05:01:46;101005.03;;;19.29;49.78
55757;BME280;41676;44.610;44.078;2023-05-12T05:06:46;100996.91;;;18.43;51.34
55757;BME280;41676;44.610;44.078;2023-05-12T05:11:47;100935.03;;;17.75;52.12
55757;BME280;41676;44.610;44.078;2023-05-12T05:16:48;100986.69;;;17.70;51.71
55757;BME280;41676;44.610;44.078;2023-05-12T05:21:49;101014.63;;;17.41;52.12
55757;BME280;41676;44.610;44.078;2023-05-12T05:26:49;101010.41;;;17.60;52.36
55757;BME280;41676;44.610;44.078;2023-05-12T05:31:50;101019.94;;;17.69;52.37
55757;BME280;41676;44.610;44.078;2023-05-12T05:36:51;101016.16;;;17.57;52.26
55757;BME280;41676;44.610;44.078;2023-05-12T05:41:52;101003.09;;;17.82;52.13
55757;BME280;41676;44.610;44.078;2023-05-12T05:46:53;100964.72;;;17.95;51.62
55757;BME280;41676;44.610;44.078;2023-05-12T05:51:54;100987.06;;;18.02;51.72
55757;BME280;41676;44.610;44.078;2023-05-12T05:56:54;100984.47;;;18.29;51.75
55757;BME280;41676;44.610;44.078;2023-05-12T06:01:55;100978.69;;;18.52;50.93
55757;BME280;41676;44.610;44.078;2023-05-12T06:06:56;100979.50;;;18.45;50.67
55757;BME280;41676;44.610;44.078;2023-05-12T06:11:57;100953.59;;;18.18;51.05
55757;BME280;41676;44.610;44.078;2023-05-12T06:16:57;100973.94;;;18.60;50.25
55757;BME280;41676;44.610;44.078;2023-05-12T06:21:58;100976.69;;;18.87;49.68
55757;BME280;41676;44.610;44.078;2023-05-12T06:26:59;100969.03;;;19.04;49.06
55757;BME280;41676;44.610;44.078;2023-05-12T06:32:00;100970.88;;;19.10;48.41
55757;BME280;41676;44.610;44.078;2023-05-12T06:37:01;100987.41;;;19.53;47.77
55757;BME280;41676;44.610;44.078;2023-05-12T06:42:02;100975.09;;;19.84;46.86
55757;BME280;41676;44.610;44.078;2023-05-12T06:47:03;100964.56;;;19.69;45.94
55757;BME280;41676;44.610;44.078;2023-05-12T06:52:05;100973.00;;;19.79;44.93
55757;BME280;41676;44.610;44.078;2023-05-12T06:57:06;100950.59;;;19.86;44.19
55757;BME280;41676;44.610;44.078;2023-05-12T07:02:06;100953.91;;;19.88;43.74
55757;BME280;41676;44.610;44.078;2023-05-12T07:07:07;100937.34;;;20.16;43.26
55757;BME280;41676;44.610;44.078;2023-05-12T07:12:08;100901.72;;;20.07;43.90
55757;BME280;41676;44.610;44.078;2023-05-12T07:17:09;100875.50;;;20.21;43.05
55757;BME280;41676;44.610;44.078;2023-05-12T07:22:09;100922.53;;;20.32;42.78
55757;BME280;41676;44.610;44.078;2023-05-12T07:27:10;100945.53;;;20.41;42.93
55757;BME280;41676;44.610;44.078;2023-05-12T07:32:11;100938.13;;;20.61;42.45
55757;BME280;41676;44.610;44.078;2023-05-12T07:37:12;100942.25;;;20.64;42.51
55757;BME280;41676;44.610;44.078;2023-05-12T07:42:13;100949.56;;;20.82;42.17
55757;BME280;41676;44.610;44.078;2023-05-12T07:47:14;100938.69;;;20.95;41.93
55757;BME280;41676;44.610;44.078;2023-05-12T07:52:15;100940.94;;;20.98;41.09
55757;BME280;41676;44.610;44.078;2023-05-12T07:57:15;100939.75;;;20.37;41.49
55757;BME280;41676;44.610;44.078;2023-05-12T08:02:16;100950.97;;;20.66;42.53
55757;BME280;41676;44.610;44.078;2023-05-12T08:07:17;100891.25;;;20.56;42.02
55757;BME280;41676;44.610;44.078;2023-05-12T08:12:18;100944.75;;;21.09;41.46
55757;BME280;41676;44.610;44.078;2023-05-12T08:17:18;100933.94;;;21.09;40.94
55757;BME280;41676;44.610;44.078;2023-05-12T08:22:19;100862.63;;;20.23;41.91
55757;BME280;41676;44.610;44.078;2023-05-12T08:27:20;100931.22;;;20.40;42.80
55757;BME280;41676;44.610;44.078;2023-05-12T08:32:21;100911.84;;;21.18;42.84
55757;BME280;41676;44.610;44.078;2023-05-12T08:37:21;100911.72;;;21.50;41.74
55757;BME280;41676;44.610;44.078;2023-05-12T08:47:23;100891.94;;;20.69;41.66
55757;BME280;41676;44.610;44.078;2023-05-12T08:52:30;100855.34;;;20.48;41.21
55757;BME280;41676;44.610;44.078;2023-05-12T08:57:31;100907.63;;;21.23;41.20
55757;BME280;41676;44.610;44.078;2023-05-12T09:02:33;100900.00;;;21.38;40.59
55757;BME280;41676;44.610;44.078;2023-05-12T09:07:41;100895.03;;;21.16;39.94
55757;BME280;41676;44.610;44.078;2023-05-12T09:12:45;100900.00;;;21.38;40.52
55757;BME280;41676;44.610;44.078;2023-05-12T09:17:49;100891.28;;;21.73;39.76
55757;BME280;41676;44.610;44.078;2023-05-12T09:22:49;100898.69;;;21.77;39.43
55757;BME280;41676;44.610;44.078;2023-05-12T09:27:53;100879.78;;;21.89;38.71
55757;BME280;41676;44.610;44.078;2023-05-12T09:33:09;100896.09;;;22.13;38.53
55757;BME280;41676;44.610;44.078;2023-05-12T09:38:12;100887.75;;;22.02;38.37
55757;BME280;41676;44.610;44.078;2023-05-12T09:43:14;100897.94;;;22.00;38.56
55757;BME280;41676;44.610;44.078;2023-05-12T09:48:15;100843.31;;;21.80;38.00
55757;BME280;41676;44.610;44.078;2023-05-12T09:53:17;100898.22;;;22.41;38.52
55757;BME280;41676;44.610;44.078;2023-05-12T09:58:19;100889.69;;;22.25;38.77
55757;BME280;41676;44.610;44.078;2023-05-12T10:03:23;100898.22;;;22.41;37.95
55757;BME280;41676;44.610;44.078;2023-05-12T10:08:54;100888.59;;;22.15;38.07
55757;BME280;41676;44.610;44.078;2023-05-12T10:13:52;100893.59;;;21.99;38.76
55757;BME280;41676;44.610;44.078;2023-05-12T10:18:54;100876.53;;;22.17;38.07
55757;BME280;41676;44.610;44.078;2023-05-12T10:23:56;100874.06;;;21.97;38.10
55757;BME280;41676;44.610;44.078;2023-05-12T10:28:57;100876.84;;;21.79;38.28
55757;BME280;41676;44.610;44.078;2023-05-12T10:34:00;100865.34;;;21.95;37.80
55757;BME280;41676;44.610;44.078;2023-05-12T10:39:05;100780.59;;;20.74;38.64
55757;BME280;41676;44.610;44.078;2023-05-12T10:44:06;100788.28;;;20.27;39.50
55757;BME280;41676;44.610;44.078;2023-05-12T10:49:08;100848.72;;;21.31;39.40
55757;BME280;41676;44.610;44.078;2023-05-12T10:54:11;100850.53;;;21.98;38.56
55757;BME280;41676;44.610;44.078;2023-05-12T10:59:23;100811.59;;;22.29;37.37
55757;BME280;41676;44.610;44.078;2023-05-12T11:04:35;100851.97;;;22.54;37.32
55757;BME280;41676;44.610;44.078;2023-05-12T11:09:43;100847.50;;;22.71;36.64
55757;BME280;41676;44.610;44.078;2023-05-12T11:14:46;100781.22;;;21.73;37.66
55757;BME280;41676;44.610;44.078;2023-05-12T11:19:48;100854.50;;;21.83;38.20
55757;BME280;41676;44.610;44.078;2023-05-12T11:24:50;100832.63;;;21.85;37.50
55757;BME280;41676;44.610;44.078;2023-05-12T11:29:59;100846.50;;;22.19;36.72
55757;BME280;41676;44.610;44.078;2023-05-12T11:35:20;100843.50;;;22.50;36.26
55757;BME280;41676;44.610;44.078;2023-05-12T11:40:21;100837.34;;;22.67;36.36
55757;BME280;41676;44.610;44.078;2023-05-12T11:45:27;100828.41;;;22.43;35.59
55757;BME280;41676;44.610;44.078;2023-05-12T11:50:29;100827.44;;;21.83;36.86
55757;BME280;41676;44.610;44.078;2023-05-12T11:55:30;100802.25;;;21.71;36.91
55757;BME280;41676;44.610;44.078;2023-05-12T12:00:34;100817.34;;;22.21;36.26
55757;BME280;41676;44.610;44.078;2023-05-12T12:05:35;100817.88;;;22.11;35.72
55757;BME280;41676;44.610;44.078;2023-05-12T12:10:36;100734.13;;;21.39;36.90
55757;BME280;41676;44.610;44.078;2023-05-12T12:15:37;100669.66;;;20.75;37.22
55757;BME280;41676;44.610;44.078;2023-05-12T12:20:38;100809.69;;;21.27;36.83
55757;BME280;41676;44.610;44.078;2023-05-12T12:25:39;100800.97;;;21.25;36.70
55757;BME280;41676;44.610;44.078;2023-05-12T12:30:39;100804.41;;;21.32;36.57
55757;BME280;41676;44.610;44.078;2023-05-12T12:35:40;100798.13;;;21.20;36.60
55757;BME280;41676;44.610;44.078;2023-05-12T12:40:41;100803.84;;;20.93;37.38
55757;BME280;41676;44.610;44.078;2023-05-12T12:45:42;100794.09;;;21.11;37.35
55757;BME280;41676;44.610;44.078;2023-05-12T12:50:43;100795.94;;;21.47;37.08
55757;BME280;41676;44.610;44.078;2023-05-12T12:55:43;100791.22;;;21.73;36.33
55757;BME280;41676;44.610;44.078;2023-05-12T13:00:44;100697.97;;;21.63;35.63
55757;BME280;41676;44.610;44.078;2023-05-12T13:05:45;100719.88;;;21.85;35.87
55757;BME280;41676;44.610;44.078;2023-05-12T13:10:46;100788.94;;;22.00;36.18
55757;BME280;41676;44.610;44.078;2023-05-12T13:15:47;100798.03;;;21.75;36.73
55757;BME280;41676;44.610;44.078;2023-05-12T13:20:48;100734.41;;;21.31;36.87
55757;BME280;41676;44.610;44.078;2023-05-12T13:25:49;100781.00;;;21.75;37.15
55757;BME280;41676;44.610;44.078;2023-05-12T13:30:51;100790.22;;;21.97;37.13
55757;BME280;41676;44.610;44.078;2023-05-12T13:35:52;100781.63;;;22.00;36.72
55757;BME280;41676;44.610;44.078;2023-05-12T13:40:54;100770.13;;;22.05;36.20
55757;BME280;41676;44.610;44.078;2023-05-12T13:45:55;100777.13;;;21.82;35.99
55757;BME280;41676;44.610;44.078;2023-05-12T13:50:56;100775.56;;;21.63;37.58
55757;BME280;41676;44.610;44.078;2023-05-12T13:55:57;100730.25;;;21.47;35.78
55757;BME280;41676;44.610;44.078;2023-05-12T14:00:58;100774.09;;;21.91;35.30
55757;BME280;41676;44.610;44.078;2023-05-12T14:05:59;100768.53;;;21.85;35.54
55757;BME280;41676;44.610;44.078;2023-05-12T14:11:00;100768.53;;;21.74;35.21
55757;BME280;41676;44.610;44.078;2023-05-12T14:16:00;100742.69;;;21.48;35.53
55757;BME280;41676;44.610;44.078;2023-05-12T14:21:01;100692.75;;;20.90;35.60
55757;BME280;41676;44.610;44.078;2023-05-12T14:26:02;100660.31;;;20.60;35.85
55757;BME280;41676;44.610;44.078;2023-05-12T14:31:04;100764.78;;;21.26;35.91
55757;BME280;41676;44.610;44.078;2023-05-12T14:36:05;100671.41;;;20.70;35.65
55757;BME280;41676;44.610;44.078;2023-05-12T14:41:06;100731.31;;;20.97;35.48
55757;BME280;41676;44.610;44.078;2023-05-12T14:46:07;100736.94;;;20.95;35.71
55757;BME280;41676;44.610;44.078;2023-05-12T14:51:08;100745.66;;;20.79;35.62
55757;BME280;41676;44.610;44.078;2023-05-12T14:56:09;100740.09;;;20.74;35.95
55757;BME280;41676;44.610;44.078;2023-05-12T15:01:10;100722.69;;;20.70;36.24
55757;BME280;41676;44.610;44.078;2023-05-12T15:06:11;100748.38;;;20.79;37.61
55757;BME280;41676;44.610;44.078;2023-05-12T15:11:12;100738.56;;;20.41;41.33
55757;BME280;41676;44.610;44.078;2023-05-12T15:16:13;100760.72;;;20.00;43.62
55757;BME280;41676;44.610;44.078;2023-05-12T15:21:14;100728.81;;;19.33;45.49
55757;BME280;41676;44.610;44.078;2023-05-12T15:26:14;100668.25;;;18.59;46.79
55757;BME280;41676;44.610;44.078;2023-05-12T15:31:15;100763.59;;;18.90;47.73
55757;BME280;41676;44.610;44.078;2023-05-12T15:36:16;100742.13;;;18.63;48.37
55757;BME280;41676;44.610;44.078;2023-05-12T15:41:17;100768.59;;;18.66;48.64
55757;BME280;41676;44.610;44.078;2023-05-12T15:46:18;100760.38;;;18.48;49.46
55757;BME280;41676;44.610;44.078;2023-05-12T15:51:19;100740.56;;;18.09;50.31
55757;BME280;41676;44.610;44.078;2023-05-12T15:56:20;100752.56;;;18.00;50.79
55757;BME280;41676;44.610;44.078;2023-05-12T16:01:23;100762.50;;;17.86;51.48
55757;BME280;41676;44.610;44.078;2023-05-12T16:06:24;100785.59;;;17.74;52.37
55757;BME280;41676;44.610;44.078;2023-05-12T16:11:25;100777.88;;;17.44;53.07
55757;BME280;41676;44.610;44.078;2023-05-12T16:16:25;100786.50;;;17.26;54.09
55757;BME280;41676;44.610;44.078;2023-05-12T16:21:26;100729.00;;;16.66;55.05
55757;BME280;41676;44.610;44.078;2023-05-12T16:26:27;100791.88;;;16.85;55.62
55757;BME280;41676;44.610;44.078;2023-05-12T16:31:28;100790.25;;;16.62;56.14
55757;BME280;41676;44.610;44.078;2023-05-12T16:36:32;100813.50;;;16.49;56.89
55757;BME280;41676;44.610;44.078;2023-05-12T16:41:33;100813.91;;;16.24;57.64
55757;BME280;41676;44.610;44.078;2023-05-12T16:46:34;100736.78;;;15.55;58.50
55757;BME280;41676;44.610;44.078;2023-05-12T16:51:35;100814.53;;;15.77;59.18
55757;BME280;41676;44.610;44.078;2023-05-12T16:56:36;100832.56;;;15.68;60.06
55757;BME280;41676;44.610;44.078;2023-05-12T17:01:36;100781.50;;;15.18;60.92
55757;BME280;41676;44.610;44.078;2023-05-12T17:06:38;100840.19;;;15.35;61.52
55757;BME280;41676;44.610;44.078;2023-05-12T17:11:39;100850.91;;;15.20;62.69
55757;BME280;41676;44.610;44.078;2023-05-12T17:16:40;100849.06;;;15.05;62.87
55757;BME280;41676;44.610;44.078;2023-05-12T17:21:41;100846.75;;;14.88;62.71
55757;BME280;41676;44.610;44.078;2023-05-12T17:26:42;100842.78;;;14.46;63.48
55757;BME280;41676;44.610;44.078;2023-05-12T17:31:42;100788.44;;;13.92;64.61
55757;BME280;41676;44.610;44.078;2023-05-12T17:36:43;100848.75;;;14.33;65.52
55757;BME280;41676;44.610;44.078;2023-05-12T17:41:44;100854.47;;;14.30;65.91
55757;BME280;41676;44.610;44.078;2023-05-12T17:46:44;100858.06;;;14.14;66.26
55757;BME280;41676;44.610;44.078;2023-05-12T17:51:45;100775.16;;;13.38;66.84
55757;BME280;41676;44.610;44.078;2023-05-12T17:56:46;100872.94;;;13.62;67.86
55757;BME280;41676;44.610;44.078;2023-05-12T18:01:47;100864.94;;;13.54;68.13
55757;BME280;41676;44.610;44.078;2023-05-12T18:06:48;100806.53;;;13.28;68.09
55757;BME280;41676;44.610;44.078;2023-05-12T18:11:49;100894.78;;;13.58;68.65
55757;BME280;41676;44.610;44.078;2023-05-12T18:16:50;100889.34;;;13.43;69.75
55757;BME280;41676;44.610;44.078;2023-05-12T18:21:52;100888.03;;;13.39;70.21
55757;BME280;41676;44.610;44.078;2023-05-12T18:26:53;100850.28;;;13.11;70.10
55757;BME280;41676;44.610;44.078;2023-05-12T18:31:54;100878.06;;;13.24;70.11
55757;BME280;41676;44.610;44.078;2023-05-12T18:36:54;100895.03;;;13.40;70.14
55757;BME280;41676;44.610;44.078;2023-05-12T18:41:56;100891.09;;;13.28;70.31
55757;BME280;41676;44.610;44.078;2023-05-12T18:46:57;100887.25;;;13.30;70.22
55757;BME280;41676;44.610;44.078;2023-05-12T18:51:58;100872.91;;;13.31;69.84
55757;BME280;41676;44.610;44.078;2023-05-12T18:56:59;100871.00;;;13.48;69.81
55757;BME280;41676;44.610;44.078;2023-05-12T19:02:01;100857.16;;;13.44;69.31
55757;BME280;41676;44.610;44.078;2023-05-12T19:07:03;100848.91;;;13.31;69.84
55757;BME280;41676;44.610;44.078;2023-05-12T19:12:06;100861.56;;;13.29;70.38
55757;BME280;41676;44.610;44.078;2023-05-12T19:17:09;100861.72;;;13.36;69.73
55757;BME280;41676;44.610;44.078;2023-05-12T19:22:10;100876.75;;;13.12;70.05
55757;BME280;41676;44.610;44.078;2023-05-12T19:27:11;100799.03;;;12.84;70.73
55757;BME280;41676;44.610;44.078;2023-05-12T19:32:12;100746.97;;;12.57;70.82
55757;BME280;41676;44.610;44.078;2023-05-12T19:37:13;100856.25;;;13.13;71.15
55757;BME280;41676;44.610;44.078;2023-05-12T19:42:14;100849.47;;;13.10;71.24
55757;BME280;41676;44.610;44.078;2023-05-12T19:47:15;100842.78;;;13.06;71.38
55757;BME280;41676;44.610;44.078;2023-05-12T19:52:16;100814.66;;;12.95;71.74
55757;BME280;41676;44.610;44.078;2023-05-12T19:57:17;100848.59;;;13.10;72.09
55757;BME280;41676;44.610;44.078;2023-05-12T20:02:19;100840.59;;;13.10;71.92
55757;BME280;41676;44.610;44.078;2023-05-12T20:07:20;100830.59;;;13.12;72.16
55757;BME280;41676;44.610;44.078;2023-05-12T20:12:21;100848.59;;;13.26;72.71
55757;BME280;41676;44.610;44.078;2023-05-12T20:17:21;100857.72;;;13.23;72.70
55757;BME280;41676;44.610;44.078;2023-05-12T20:22:22;100825.94;;;13.14;73.15
55757;BME280;41676;44.610;44.078;2023-05-12T20:27:23;100843.09;;;13.19;73.51
55757;BME280;41676;44.610;44.078;2023-05-12T20:32:24;100833.47;;;13.02;73.65
55757;BME280;41676;44.610;44.078;2023-05-12T20:37:25;100845.47;;;12.98;73.93
55757;BME280;41676;44.610;44.078;2023-05-12T20:42:25;100853.53;;;12.82;75.22
55757;BME280;41676;44.610;44.078;2023-05-12T20:47:26;100765.88;;;12.15;75.88
55757;BME280;41676;44.610;44.078;2023-05-12T20:52:27;100851.88;;;12.64;76.45
55757;BME280;41676;44.610;44.078;2023-05-12T20:57:28;100853.88;;;12.62;76.52
55757;BME280;41676;44.610;44.078;2023-05-12T21:02:29;100853.09;;;12.53;77.31
55757;BME280;41676;44.610;44.078;2023-05-12T21:07:30;100825.94;;;12.25;77.85
55757;BME280;41676;44.610;44.078;2023-05-12T21:12:31;100848.59;;;12.29;78.37
55757;BME280;41676;44.610;44.078;2023-05-12T21:17:32;100847.75;;;12.29;78.12
55757;BME280;41676;44.610;44.078;2023-05-12T21:22:33;100835.09;;;12.31;78.09
55757;BME280;41676;44.610;44.078;2023-05-12T21:27:38;100848.91;;;12.34;79.78
55757;BME280;41676;44.610;44.078;2023-05-12T21:32:42;100843.91;;;12.31;77.90
55757;BME280;41676;44.610;44.078;2023-05-12T21:37:43;100840.75;;;12.36;77.70
55757;BME280;41676;44.610;44.078;2023-05-12T21:42:44;100783.84;;;12.04;77.29
55757;BME280;41676;44.610;44.078;2023-05-12T21:47:45;100839.09;;;12.43;77.04
55757;BME280;41676;44.610;44.078;2023-05-12T21:52:49;100749.38;;;12.11;76.66
55757;BME280;41676;44.610;44.078;2023-05-12T21:57:50;100820.38;;;12.68;75.98
55757;BME280;41676;44.610;44.078;2023-05-12T22:02:50;100827.00;;;12.80;75.30
55757;BME280;41676;44.610;44.078;2023-05-12T22:07:51;100816.47;;;12.95;74.29
55757;BME280;41676;44.610;44.078;2023-05-12T22:12:52;100729.97;;;12.58;72.53
55757;BME280;41676;44.610;44.078;2023-05-12T22:17:53;100808.09;;;13.14;71.74
55757;BME280;41676;44.610;44.078;2023-05-12T22:22:54;100717.44;;;12.67;70.99
55757;BME280;41676;44.610;44.078;2023-05-12T22:27:55;100784.69;;;13.24;69.86
55757;BME280;41676;44.610;44.078;2023-05-12T22:32:55;100793.63;;;13.40;68.42
55757;BME280;41676;44.610;44.078;2023-05-12T22:37:56;100769.84;;;13.22;67.73
55757;BME280;41676;44.610;44.078;2023-05-12T22:42:57;100788.47;;;13.38;67.28
55757;BME280;41676;44.610;44.078;2023-05-12T22:47:58;100791.28;;;13.45;66.49
55757;BME280;41676;44.610;44.078;2023-05-12T22:52:59;100798.81;;;13.41;65.77
55757;BME280;41676;44.610;44.078;2023-05-12T22:58:00;100782.91;;;13.48;65.59
55757;BME280;41676;44.610;44.078;2023-05-12T23:03:01;100782.59;;;13.43;65.35
55757;BME280;41676;44.610;44.078;2023-05-12T23:08:02;100771.34;;;13.33;64.64
55757;BME280;41676;44.610;44.078;2023-05-12T23:13:03;100722.09;;;13.04;64.45
55757;BME280;41676;44.610;44.078;2023-05-12T23:18:04;100786.16;;;13.35;64.85
55757;BME280;41676;44.610;44.078;2023-05-12T23:23:05;100774.22;;;13.15;64.68
55757;BME280;41676;44.610;44.078;2023-05-12T23:28:06;100785.94;;;13.06;66.04
55757;BME280;41676;44.610;44.078;2023-05-12T23:33:07;100791.75;;;13.09;67.22
55757;BME280;41676;44.610;44.078;2023-05-12T23:38:07;100712.66;;;12.54;67.75
55757;BME280;41676;44.610;44.078;2023-05-12T23:43:08;100784.00;;;12.91;68.96
55757;BME280;41676;44.610;44.078;2023-05-12T23:48:09;100781.19;;;12.85;70.30
55757;BME280;41676;44.610;44.078;2023-05-12T23:53:10;100759.25;;;12.66;70.33
55757;BME280;41676;44.610;44.078;2023-05-12T23:58:11;100793.72;;;12.76;71.21
